sensor_id;sensor_type;location;lat;lon;timestamp;P1;durP1;ratioP1;P2;durP2;ratioP2
53939;SDS011;39850;43.324;21.916;2024-03-02T00:04:27;15.0;;;14.0;;
53939;SDS011;39850;43.324;21.916;2024-03-02T00:09:04;15.0;;;14.0;;
53939;SDS011;39850;43.324;21.916;2024-03-02T00:13:40;15.0;;;15.0;;
53939;SDS011;39850;43.324;21.916;2024-03-02T00:18:26;15.0;;;15.0;;
53939;SDS011;39850;43.324;21.916;2024-03-02T00:23:09;16.0;;;14.0;;
53939;SDS011;39850;43.324;21.916;2024-03-02T00:27:50;16.0;;;14.0;;
53939;SDS011;39850;43.324;21.916;2024-03-02T00:32:26;16.0;;;15.0;;
53939;SDS011;39850;43.324;21.916;2024-03-02T00:37:02;16.0;;;15.0;;
53939;SDS011;39850;43.324;21.916;2024-03-02T00:41:41;16.0;;;15.0;;
53939;SDS011;39850;43.324;21.916;2024-03-02T01:14:05;17.0;;;16.0;;
53939;SDS011;39850;43.324;21.916;2024-03-02T01:18:43;17.0;;;16.0;;
53939;SDS011;39850;43.324;21.916;2024-03-02T01:23:19;17.0;;;16.0;;
53939;SDS011;39850;43.324;21.916;2024-03-02T01:27:56;17.0;;;16.0;;
53939;SDS011;39850;43.324;21.916;2024-03-02T01:32:32;17.0;;;16.0;;
53939;SDS011;39850;43.324;21.916;2024-03-02T01:37:08;17.0;;;16.0;;
53939;SDS011;39850;43.324;21.916;2024-03-02T01:41:44;17.0;;;16.0;;
53939;SDS011;39850;43.324;21.916;2024-03-02T01:46:20;16.0;;;15.0;;
53939;SDS011;39850;43.324;21.916;2024-03-02T01:50:57;16.0;;;15.0;;
53939;SDS011;39850;43.324;21.916;2024-03-02T01:55:33;15.0;;;14.0;;
53939;SDS011;39850;43.324;21.916;2024-03-02T02:00:12;15.0;;;14.0;;
53939;SDS011;39850;43.324;21.916;2024-03-02T02:32:30;12.0;;;11.0;;
53939;SDS011;39850;43.324;21.916;2024-03-02T02:37:06;12.0;;;11.0;;
53939;SDS011;39850;43.324;21.916;2024-03-02T02:41:42;12.0;;;11.0;;
53939;SDS011;39850;43.324;21.916;2024-03-02T02:46:19;12.0;;;10.0;;
53939;SDS011;39850;43.324;21.916;2024-03-02T02:50:55;12.0;;;10.0;;
53939;SDS011;39850;43.324;21.916;2024-03-02T02:55:31;11.0;;;10.0;;
53939;SDS011;39850;43.324;21.916;2024-03-02T03:00:14;11.0;;;10.0;;
53939;SDS011;39850;43.324;21.916;2024-03-02T03:04:52;10.0;;;10.0;;
53939;SDS011;39850;43.324;21.916;2024-03-02T03:09:29;10.0;;;10.0;;
53939;SDS011;39850;43.324;21.916;2024-03-02T03:14:05;10.0;;;9.0;;
53939;SDS011;39850;43.324;21.916;2024-03-02T03:18:41;10.0;;;9.0;;
53939;SDS011;39850;43.324;21.916;2024-03-02T03:55:31;10.0;;;9.0;;
53939;SDS011;39850;43.324;21.916;2024-03-02T04:00:11;10.0;;;9.0;;
53939;SDS011;39850;43.324;21.916;2024-03-02T04:04:48;10.0;;;9.0;;
53939;SDS011;39850;43.324;21.916;2024-03-02T04:09:24;10.0;;;9.0;;
53939;SDS011;39850;43.324;21.916;2024-03-02T04:14:00;10.0;;;9.0;;
53939;SDS011;39850;43.324;21.916;2024-03-02T04:18:36;10.0;;;9.0;;
53939;SDS011;39850;43.324;21.916;2024-03-02T04:23:12;10.0;;;9.0;;
53939;SDS011;39850;43.324;21.916;2024-03-02T04:27:49;10.0;;;9.0;;
53939;SDS011;39850;43.324;21.916;2024-03-02T04:32:25;10.0;;;9.0;;
53939;SDS011;39850;43.324;21.916;2024-03-02T04:37:01;10.0;;;9.0;;
53939;SDS011;39850;43.324;21.916;2024-03-02T04:41:37;10.0;;;9.0;;
53939;SDS011;39850;43.324;21.916;2024-03-02T05:13:56;11.0;;;10.0;;
53939;SDS011;39850;43.324;21.916;2024-03-02T05:18:32;11.0;;;10.0;;
53939;SDS011;39850;43.324;21.916;2024-03-02T05:23:09;11.0;;;10.0;;
53939;SDS011;39850;43.324;21.916;2024-03-02T05:27:45;11.0;;;10.0;;
53939;SDS011;39850;43.324;21.916;2024-03-02T05:32:22;11.0;;;10.0;;
53939;SDS011;39850;43.324;21.916;2024-03-02T05:36:58;11.0;;;10.0;;
53939;SDS011;39850;43.324;21.916;2024-03-02T05:41:34;11.0;;;10.0;;
53939;SDS011;39850;43.324;21.916;2024-03-02T05:46:11;10.0;;;10.0;;
53939;SDS011;39850;43.324;21.916;2024-03-02T05:50:47;10.0;;;10.0;;
53939;SDS011;39850;43.324;21.916;2024-03-02T05:55:23;10.0;;;9.0;;
53939;SDS011;39850;43.324;21.916;2024-03-02T05:59:59;10.0;;;9.0;;
53939;SDS011;39850;43.324;21.916;2024-03-02T06:36:48;10.0;;;9.0;;
53939;SDS011;39850;43.324;21.916;2024-03-02T06:41:24;10.0;;;9.0;;
53939;SDS011;39850;43.324;21.916;2024-03-02T06:46:00;10.0;;;9.0;;
53939;SDS011;39850;43.324;21.916;2024-03-02T06:50:36;10.0;;;9.0;;
53939;SDS011;39850;43.324;21.916;2024-03-02T06:55:13;10.0;;;9.0;;
53939;SDS011;39850;43.324;21.916;2024-03-02T06:59:49;10.0;;;9.0;;
53939;SDS011;39850;43.324;21.916;2024-03-02T07:04:26;10.0;;;8.0;;
53939;SDS011;39850;43.324;21.916;2024-03-02T07:09:03;10.0;;;8.0;;
53939;SDS011;39850;43.324;21.916;2024-03-02T07:13:39;9.0;;;8.0;;
53939;SDS011;39850;43.324;21.916;2024-03-02T07:18:16;9.0;;;8.0;;
53939;SDS011;39850;43.324;21.916;2024-03-02T07:22:52;9.0;;;8.0;;
53939;SDS011;39850;43.324;21.916;2024-03-02T07:55:13;10.0;;;9.0;;
53939;SDS011;39850;43.324;21.916;2024-03-02T07:59:49;10.0;;;9.0;;
53939;SDS011;39850;43.324;21.916;2024-03-02T08:04:26;10.0;;;9.0;;
53939;SDS011;39850;43.324;21.916;2024-03-02T08:09:02;10.0;;;9.0;;
53939;SDS011;39850;43.324;21.916;2024-03-02T08:13:39;10.0;;;9.0;;
53939;SDS011;39850;43.324;21.916;2024-03-02T08:18:15;10.0;;;9.0;;
53939;SDS011;39850;43.324;21.916;2024-03-02T08:22:52;10.0;;;9.0;;
53939;SDS011;39850;43.324;21.916;2024-03-02T08:27:28;10.0;;;9.0;;
53939;SDS011;39850;43.324;21.916;2024-03-02T08:32:07;10.0;;;9.0;;
53939;SDS011;39850;43.324;21.916;2024-03-02T08:36:43;10.0;;;9.0;;
53939;SDS011;39850;43.324;21.916;2024-03-02T08:41:21;10.0;;;9.0;;
53939;SDS011;39850;43.324;21.916;2024-03-02T09:18:12;10.0;;;9.0;;
53939;SDS011;39850;43.324;21.916;2024-03-02T09:22:49;10.0;;;9.0;;
53939;SDS011;39850;43.324;21.916;2024-03-02T09:27:25;10.0;;;9.0;;
53939;SDS011;39850;43.324;21.916;2024-03-02T09:32:01;10.0;;;9.0;;
53939;SDS011;39850;43.324;21.916;2024-03-02T09:36:38;10.0;;;9.0;;
53939;SDS011;39850;43.324;21.916;2024-03-02T09:41:15;10.0;;;9.0;;
53939;SDS011;39850;43.324;21.916;2024-03-02T09:45:53;10.0;;;9.0;;
53939;SDS011;39850;43.324;21.916;2024-03-02T09:50:29;10.0;;;9.0;;
53939;SDS011;39850;43.324;21.916;2024-03-02T09:55:08;10.0;;;9.0;;
53939;SDS011;39850;43.324;21.916;2024-03-02T09:59:45;10.0;;;9.0;;
53939;SDS011;39850;43.324;21.916;2024-03-02T10:36:49;9.0;;;8.0;;
53939;SDS011;39850;43.324;21.916;2024-03-02T10:41:33;9.0;;;8.0;;
53939;SDS011;39850;43.324;21.916;2024-03-02T10:46:19;9.0;;;8.0;;
53939;SDS011;39850;43.324;21.916;2024-03-02T10:50:56;9.0;;;8.0;;
53939;SDS011;39850;43.324;21.916;2024-03-02T10:55:33;9.0;;;9.0;;
53939;SDS011;39850;43.324;21.916;2024-03-02T11:00:14;9.0;;;9.0;;
53939;SDS011;39850;43.324;21.916;2024-03-02T11:05:06;10.0;;;9.0;;
53939;SDS011;39850;43.324;21.916;2024-03-02T11:10:01;10.0;;;9.0;;
53939;SDS011;39850;43.324;21.916;2024-03-02T11:14:42;10.0;;;9.0;;
53939;SDS011;39850;43.324;21.916;2024-03-02T11:19:20;10.0;;;9.0;;
53939;SDS011;39850;43.324;21.916;2024-03-02T11:23:57;10.0;;;9.0;;
53939;SDS011;39850;43.324;21.916;2024-03-02T11:56:37;10.0;;;9.0;;
53939;SDS011;39850;43.324;21.916;2024-03-02T12:01:13;10.0;;;9.0;;
53939;SDS011;39850;43.324;21.916;2024-03-02T12:05:53;16.0;;;10.0;;
53939;SDS011;39850;43.324;21.916;2024-03-02T12:10:33;16.0;;;10.0;;
53939;SDS011;39850;43.324;21.916;2024-03-02T12:15:10;11.0;;;9.0;;
53939;SDS011;39850;43.324;21.916;2024-03-02T12:19:46;11.0;;;9.0;;
53939;SDS011;39850;43.324;21.916;2024-03-02T12:24:26;16.0;;;10.0;;
53939;SDS011;39850;43.324;21.916;2024-03-02T12:29:04;16.0;;;10.0;;
53939;SDS011;39850;43.324;21.916;2024-03-02T12:33:41;16.0;;;10.0;;
53939;SDS011;39850;43.324;21.916;2024-03-02T12:38:17;11.0;;;9.0;;
53939;SDS011;39850;43.324;21.916;2024-03-02T12:42:53;11.0;;;9.0;;
53939;SDS011;39850;43.324;21.916;2024-03-02T13:15:10;8.0;;;7.0;;
53939;SDS011;39850;43.324;21.916;2024-03-02T13:19:57;8.0;;;7.0;;
53939;SDS011;39850;43.324;21.916;2024-03-02T13:24:35;8.0;;;7.0;;
53939;SDS011;39850;43.324;21.916;2024-03-02T13:29:12;8.0;;;7.0;;
53939;SDS011;39850;43.324;21.916;2024-03-02T13:33:48;8.0;;;7.0;;
53939;SDS011;39850;43.324;21.916;2024-03-02T13:38:24;9.0;;;7.0;;
53939;SDS011;39850;43.324;21.916;2024-03-02T13:43:02;9.0;;;7.0;;
53939;SDS011;39850;43.324;21.916;2024-03-02T13:47:39;9.0;;;7.0;;
53939;SDS011;39850;43.324;21.916;2024-03-02T13:52:15;9.0;;;7.0;;
53939;SDS011;39850;43.324;21.916;2024-03-02T13:56:52;9.0;;;7.0;;
53939;SDS011;39850;43.324;21.916;2024-03-02T14:01:28;9.0;;;7.0;;
53939;SDS011;39850;43.324;21.916;2024-03-02T15:56:31;16.0;;;12.0;;
53939;SDS011;39850;43.324;21.916;2024-03-02T16:01:08;16.0;;;12.0;;
53939;SDS011;39850;43.324;21.916;2024-03-02T16:05:44;14.0;;;12.0;;
53939;SDS011;39850;43.324;21.916;2024-03-02T16:10:20;14.0;;;12.0;;
53939;SDS011;39850;43.324;21.916;2024-03-02T16:14:56;14.0;;;12.0;;
53939;SDS011;39850;43.324;21.916;2024-03-02T16:19:32;13.0;;;12.0;;
53939;SDS011;39850;43.324;21.916;2024-03-02T16:24:09;13.0;;;12.0;;
53939;SDS011;39850;43.324;21.916;2024-03-02T16:28:45;13.0;;;12.0;;
53939;SDS011;39850;43.324;21.916;2024-03-02T16:33:21;13.0;;;12.0;;
53939;SDS011;39850;43.324;21.916;2024-03-02T16:37:57;13.0;;;12.0;;
53939;SDS011;39850;43.324;21.916;2024-03-02T16:42:33;13.0;;;12.0;;
53939;SDS011;39850;43.324;21.916;2024-03-02T17:19:23;13.0;;;11.0;;
53939;SDS011;39850;43.324;21.916;2024-03-02T17:24:00;13.0;;;11.0;;
53939;SDS011;39850;43.324;21.916;2024-03-02T17:28:36;14.0;;;12.0;;
53939;SDS011;39850;43.324;21.916;2024-03-02T17:33:13;14.0;;;12.0;;
53939;SDS011;39850;43.324;21.916;2024-03-02T17:37:49;13.0;;;12.0;;
53939;SDS011;39850;43.324;21.916;2024-03-02T17:42:25;13.0;;;12.0;;
53939;SDS011;39850;43.324;21.916;2024-03-02T17:47:01;14.0;;;12.0;;
53939;SDS011;39850;43.324;21.916;2024-03-02T17:51:38;14.0;;;12.0;;
53939;SDS011;39850;43.324;21.916;2024-03-02T17:56:14;13.0;;;12.0;;
53939;SDS011;39850;43.324;21.916;2024-03-02T18:00:51;13.0;;;12.0;;
53939;SDS011;39850;43.324;21.916;2024-03-02T18:37:45;14.0;;;12.0;;
53939;SDS011;39850;43.324;21.916;2024-03-02T18:42:22;14.0;;;12.0;;
53939;SDS011;39850;43.324;21.916;2024-03-02T18:46:58;14.0;;;12.0;;
53939;SDS011;39850;43.324;21.916;2024-03-02T18:51:34;14.0;;;12.0;;
53939;SDS011;39850;43.324;21.916;2024-03-02T18:56:11;14.0;;;13.0;;
53939;SDS011;39850;43.324;21.916;2024-03-02T19:00:47;14.0;;;13.0;;
53939;SDS011;39850;43.324;21.916;2024-03-02T19:05:23;14.0;;;13.0;;
53939;SDS011;39850;43.324;21.916;2024-03-02T19:10:00;16.0;;;14.0;;
53939;SDS011;39850;43.324;21.916;2024-03-02T19:14:37;16.0;;;14.0;;
53939;SDS011;39850;43.324;21.916;2024-03-02T19:19:14;17.0;;;16.0;;
53939;SDS011;39850;43.324;21.916;2024-03-02T19:23:50;17.0;;;16.0;;
53939;SDS011;39850;43.324;21.916;2024-03-02T19:56:05;47.0;;;33.0;;
53939;SDS011;39850;43.324;21.916;2024-03-02T20:00:42;47.0;;;33.0;;
53939;SDS011;39850;43.324;21.916;2024-03-02T20:05:18;47.0;;;33.0;;
53939;SDS011;39850;43.324;21.916;2024-03-02T20:09:54;34.0;;;25.0;;
53939;SDS011;39850;43.324;21.916;2024-03-02T20:14:30;34.0;;;25.0;;
53939;SDS011;39850;43.324;21.916;2024-03-02T20:19:06;20.0;;;18.0;;
53939;SDS011;39850;43.324;21.916;2024-03-02T20:23:43;20.0;;;18.0;;
53939;SDS011;39850;43.324;21.916;2024-03-02T20:28:19;20.0;;;18.0;;
53939;SDS011;39850;43.324;21.916;2024-03-02T20:32:55;20.0;;;18.0;;
53939;SDS011;39850;43.324;21.916;2024-03-02T20:37:31;20.0;;;18.0;;
53939;SDS011;39850;43.324;21.916;2024-03-02T20:42:08;20.0;;;18.0;;
53939;SDS011;39850;43.324;21.916;2024-03-02T21:19:00;15.0;;;14.0;;
53939;SDS011;39850;43.324;21.916;2024-03-02T21:23:37;15.0;;;14.0;;
53939;SDS011;39850;43.324;21.916;2024-03-02T21:28:13;16.0;;;14.0;;
53939;SDS011;39850;43.324;21.916;2024-03-02T21:32:51;16.0;;;14.0;;
53939;SDS011;39850;43.324;21.916;2024-03-02T21:37:28;16.0;;;15.0;;
53939;SDS011;39850;43.324;21.916;2024-03-02T21:42:04;16.0;;;15.0;;
53939;SDS011;39850;43.324;21.916;2024-03-02T21:46:41;16.0;;;15.0;;
53939;SDS011;39850;43.324;21.916;2024-03-02T21:51:18;16.0;;;15.0;;
53939;SDS011;39850;43.324;21.916;2024-03-02T21:55:54;16.0;;;15.0;;
53939;SDS011;39850;43.324;21.916;2024-03-02T22:00:30;17.0;;;15.0;;
53939;SDS011;39850;43.324;21.916;2024-03-02T22:05:08;17.0;;;15.0;;
53939;SDS011;39850;43.324;21.916;2024-03-02T22:37:24;14.0;;;14.0;;
53939;SDS011;39850;43.324;21.916;2024-03-02T22:42:00;14.0;;;14.0;;
53939;SDS011;39850;43.324;21.916;2024-03-02T22:46:37;15.0;;;14.0;;
53939;SDS011;39850;43.324;21.916;2024-03-02T22:51:21;15.0;;;14.0;;
53939;SDS011;39850;43.324;21.916;2024-03-02T22:55:58;15.0;;;14.0;;
53939;SDS011;39850;43.324;21.916;2024-03-02T23:00:34;15.0;;;14.0;;
53939;SDS011;39850;43.324;21.916;2024-03-02T23:05:10;15.0;;;14.0;;
53939;SDS011;39850;43.324;21.916;2024-03-02T23:09:47;16.0;;;14.0;;
53939;SDS011;39850;43.324;21.916;2024-03-02T23:14:24;16.0;;;14.0;;
53939;SDS011;39850;43.324;21.916;2024-03-02T23:19:01;15.0;;;13.0;;
53939;SDS011;39850;43.324;21.916;2024-03-02T23:23:38;15.0;;;13.0;;
